Hlavní strana
METAR-TAF:

METAR-TAF

Letiště :

Kajaani, Finsko

zeměpisná šířka: 64-17N, zeměpisná délka: 027-41E, výška: 143 m

Aktuální stav počasí

Zpráva byla vytvořena před 34 minutami, v 03:50 UTC
Severovýchodní vítr 15 kt s nárazy do 25 kt, proměnlivý mezi severním a východoseverovýchodním
Teplota 3°C
Vlhkost vzduchu 60%
Tlak 1037 hPa
Viditelnost 10 km a více
Oblačno až skoro zataženo ve výšce 3400 ft

METAR: EFKI 180350Z AUTO 04015G25KT 010V070 9999 BKN034 03/M04 Q1037

Čas: 06:24 (04:24 UTC)

Předpověď počasí

Zpráva byla vytvořena před 13 hodinami a 53 minutami, v 14:31 UTC
Předpověď platná od 17 v 15 UTC do 17 v 17 UTC
Severozápadní vítr 15 kt
Viditelnost 10 km a více
Žádná oblačnost pod 1500 m, nevyskytují se cumulonimby.
Dočasný
od 17 v 15 UTC do 17 v 17 UTC
Severozápadní vítr 15 kt s nárazy do 25 kt

TAF: EFKI 171431Z 1715/1717 32015KT CAVOK TEMPO 1715/1717 32015G25KT

Stav a předpovědi počasí z více než 4 000 letišť (zprávy METAR a TAF).

Červené a žluté tečky na mapě představují dostupné meteorologické stanice.

Když kurzor umístíte na tečku, zobrazí se název stanice.

Pak kliknutím zobrazíte stav a předpověď počasí.

Chcete-li změnit mapu, kliknutím na zelené tlačítko se znaménkem +mapu přiblížíte, kliknutím na zelené tlačítko se znaménkem – mapu oddálíte a kliknutím na zelené šipky přejdete na sousední mapy.


METAR-TAF: